createdAt,value
2022-08-05T00:02:27.644Z,22.80
2022-08-05T00:04:56.200Z,22.90
2022-08-05T00:07:58.970Z,22.90
2022-08-05T00:10:10.433Z,22.90
2022-08-05T00:12:55.873Z,23.00
2022-08-05T00:15:55.227Z,23.00
2022-08-05T00:18:21.514Z,23.00
2022-08-05T00:20:50.624Z,23.20
2022-08-05T00:23:17.775Z,23.20
2022-08-05T00:26:05.148Z,23.30
2022-08-05T00:28:31.924Z,23.30
2022-08-05T00:31:02.768Z,23.10
2022-08-05T00:34:53.547Z,22.80
2022-08-05T00:37:12.516Z,22.60
2022-08-05T00:39:05.290Z,23.00
2022-08-05T00:41:52.249Z,22.90
2022-08-05T00:44:31.011Z,22.80
2022-08-05T00:47:03.926Z,22.90
2022-08-05T00:49:32.578Z,22.90
2022-08-05T00:52:00.307Z,22.70
2022-08-05T00:54:28.168Z,22.70
2022-08-05T00:56:57.121Z,22.60
2022-08-05T00:59:23.810Z,22.80
2022-08-05T01:01:51.102Z,22.80
2022-08-05T01:04:20.155Z,22.70
2022-08-05T01:06:53.710Z,22.50
2022-08-05T01:09:22.708Z,22.50
2022-08-05T01:11:51.815Z,22.70
2022-08-05T01:14:36.973Z,22.80
2022-08-05T01:17:07.571Z,23.00
2022-08-05T01:20:02.185Z,23.30
2022-08-05T01:22:24.404Z,23.30
2022-08-05T01:25:13.622Z,23.30
2022-08-05T01:27:59.159Z,23.40
2022-08-05T01:30:34.667Z,23.40
2022-08-05T01:33:06.258Z,23.30
2022-08-05T01:35:51.807Z,23.30
2022-08-05T01:38:27.425Z,23.40
2022-08-05T01:40:59.381Z,23.50
2022-08-05T01:43:28.299Z,23.60
2022-08-05T01:45:56.712Z,23.70
2022-08-05T01:48:28.571Z,23.70
2022-08-05T01:50:56.442Z,23.70
2022-08-05T01:53:54.805Z,23.70
2022-08-05T01:56:13.385Z,23.70
2022-08-05T01:59:03.313Z,23.80
2022-08-05T02:01:39.709Z,23.90
2022-08-05T02:04:10.382Z,24.00
2022-08-05T02:06:39.079Z,24.10
2022-08-05T02:09:07.152Z,24.20
2022-08-05T02:12:12.961Z,24.20
2022-08-05T02:14:53.247Z,24.30
2022-08-05T02:18:28.784Z,24.40
2022-08-05T02:20:23.755Z,24.40
2022-08-05T02:22:59.750Z,24.50
2022-08-05T02:25:33.382Z,24.50
2022-08-05T02:28:09.123Z,24.60
2022-08-05T02:30:54.239Z,24.60
2022-08-05T02:33:36.039Z,24.60
2022-08-05T02:36:10.310Z,24.60
2022-08-05T02:38:42.912Z,24.60
2022-08-05T02:41:16.949Z,24.70
2022-08-05T02:44:06.627Z,24.70
2022-08-05T02:46:34.515Z,24.60
2022-08-05T02:49:01.939Z,24.70
2022-08-05T02:52:02.671Z,24.70
2022-08-05T02:54:35.794Z,24.80
2022-08-05T02:57:10.168Z,24.70
2022-08-05T02:59:56.195Z,24.60
2022-08-05T03:02:29.496Z,24.60
2022-08-05T03:04:57.892Z,24.60
2022-08-05T03:07:56.630Z,24.70
2022-08-05T03:10:24.419Z,24.70
2022-08-05T03:12:52.580Z,24.80
2022-08-05T03:15:21.222Z,24.70
2022-08-05T03:17:54.081Z,24.80
2022-08-05T03:20:22.387Z,24.80
2022-08-05T03:22:51.020Z,24.70
2022-08-05T03:26:03.455Z,24.70
2022-08-05T03:28:08.711Z,24.60
2022-08-05T03:30:36.788Z,24.70
2022-08-05T03:33:07.401Z,24.60
2022-08-05T03:35:40.738Z,24.60
2022-08-05T03:38:12.618Z,24.50
2022-08-05T03:40:45.233Z,24.60
2022-08-05T03:44:09.663Z,24.60
2022-08-05T03:46:05.037Z,24.60
2022-08-05T03:48:35.589Z,24.60
2022-08-05T03:52:37.213Z,24.60
2022-08-05T03:56:00.723Z,24.60
2022-08-05T03:57:18.667Z,24.60
2022-08-05T03:59:54.849Z,24.60
2022-08-05T04:02:38.549Z,24.60
2022-08-05T04:05:09.609Z,24.50
2022-08-05T04:07:57.430Z,24.60
2022-08-05T04:10:33.367Z,24.20
2022-08-05T04:13:05.670Z,24.20
2022-08-05T04:15:36.122Z,24.20
2022-08-05T04:18:07.913Z,24.10
2022-08-05T04:20:36.795Z,24.20
2022-08-05T04:23:03.677Z,24.50
2022-08-05T04:25:57.371Z,24.20
2022-08-05T04:28:17.735Z,24.20
2022-08-05T04:30:45.165Z,24.20
2022-08-05T04:33:12.616Z,24.20
2022-08-05T04:36:16.739Z,24.30
2022-08-05T04:38:39.487Z,24.50
2022-08-05T04:41:07.362Z,24.40
2022-08-05T04:43:36.543Z,24.40
2022-08-05T04:46:05.150Z,24.50
2022-08-05T04:48:32.260Z,24.60
2022-08-05T04:51:03.236Z,24.50
2022-08-05T04:53:36.708Z,24.60
2022-08-05T04:56:33.535Z,24.60
2022-08-05T04:58:54.347Z,24.70
2022-08-05T05:02:06.075Z,24.70
2022-08-05T05:04:08.178Z,24.70
2022-08-05T05:06:40.129Z,24.70
2022-08-05T05:09:17.746Z,24.70
2022-08-05T05:11:53.894Z,24.60
2022-08-05T05:14:27.973Z,24.60
2022-08-05T05:17:00.314Z,24.70
2022-08-05T05:19:37.215Z,24.60
2022-08-05T05:22:24.137Z,24.60
2022-08-05T05:24:59.810Z,24.70
2022-08-05T05:27:45.143Z,24.80
2022-08-05T05:30:29.190Z,24.80
2022-08-05T05:32:57.115Z,24.80
2022-08-05T05:35:37.729Z,24.80
2022-08-05T05:38:09.466Z,24.80
2022-08-05T05:40:48.045Z,24.80
2022-08-05T05:43:28.209Z,24.80
2022-08-05T05:46:03.636Z,24.80
2022-08-05T05:48:32.243Z,24.80
2022-08-05T05:51:14.960Z,24.90
2022-08-05T05:53:54.160Z,24.90
2022-08-05T05:56:31.645Z,24.80
2022-08-05T05:59:03.504Z,24.80
2022-08-05T06:01:36.937Z,24.80
2022-08-05T06:04:07.204Z,24.80
2022-08-05T06:06:34.804Z,24.80
2022-08-05T06:09:06.121Z,24.90
2022-08-05T06:11:34.591Z,24.80
2022-08-05T06:14:02.053Z,24.90
2022-08-05T06:16:36.860Z,25.00
2022-08-05T06:19:05.976Z,24.90
2022-08-05T06:21:36.602Z,24.90
2022-08-05T06:24:11.765Z,24.90
2022-08-05T06:26:40.246Z,24.90
2022-08-05T06:29:42.860Z,24.90
2022-08-05T06:32:20.886Z,24.90
2022-08-05T06:34:53.567Z,24.80
2022-08-05T06:37:52.424Z,24.90
2022-08-05T06:40:09.341Z,25.00
2022-08-05T06:42:36.835Z,25.00
2022-08-05T06:45:08.672Z,25.00
2022-08-05T06:48:36.384Z,25.10
2022-08-05T06:50:22.983Z,24.90
2022-08-05T06:52:58.855Z,25.00
2022-08-05T06:55:36.329Z,25.10
2022-08-05T06:58:20.335Z,25.00
2022-08-05T07:00:50.458Z,24.90
2022-08-05T07:03:17.658Z,24.80
2022-08-05T07:05:46.284Z,24.80
2022-08-05T07:08:13.270Z,24.80
2022-08-05T07:10:53.439Z,25.00
2022-08-05T07:13:57.748Z,25.20
2022-08-05T07:17:58.838Z,25.10
2022-08-05T07:20:10.477Z,25.20
2022-08-05T07:22:17.596Z,25.20
2022-08-05T07:24:53.597Z,25.30
2022-08-05T07:27:21.589Z,25.40
2022-08-05T07:30:27.399Z,25.50
2022-08-05T07:32:38.853Z,25.40
2022-08-05T07:36:02.247Z,25.40
2022-08-05T07:37:56.785Z,25.40
2022-08-05T07:40:31.478Z,25.30
2022-08-05T07:42:59.574Z,25.30
2022-08-05T07:45:56.580Z,25.30
2022-08-05T07:49:01.878Z,25.30
2022-08-05T07:51:23.527Z,25.40
2022-08-05T07:53:55.253Z,25.40
2022-08-05T07:57:00.264Z,25.40
2022-08-05T07:59:08.781Z,25.40
2022-08-05T08:01:35.711Z,25.40
2022-08-05T08:04:37.500Z,25.50
2022-08-05T08:07:07.208Z,25.40
2022-08-05T08:09:34.867Z,25.40
2022-08-05T08:12:09.090Z,25.30
2022-08-05T08:14:38.187Z,25.50
2022-08-05T08:17:10.887Z,25.70
2022-08-05T08:20:23.402Z,25.80
2022-08-05T08:22:30.379Z,26.00
2022-08-05T08:25:03.130Z,26.20
2022-08-05T08:27:35.814Z,26.30
2022-08-05T08:30:27.663Z,26.30
2022-08-05T08:32:58.536Z,26.20
2022-08-05T08:35:35.183Z,26.20
2022-08-05T08:38:08.652Z,26.10
2022-08-05T08:40:50.447Z,26.20
2022-08-05T08:45:20.894Z,26.30
2022-08-05T08:46:09.962Z,26.50
2022-08-05T08:49:02.474Z,26.70
2022-08-05T08:52:06.116Z,26.60
2022-08-05T08:54:18.311Z,26.70
2022-08-05T08:56:47.695Z,26.90
2022-08-05T08:59:19.346Z,27.10
2022-08-05T09:01:57.246Z,27.30
2022-08-05T09:04:30.535Z,27.40
2022-08-05T09:06:58.507Z,27.50
2022-08-05T09:09:25.949Z,27.50
2022-08-05T09:12:03.400Z,27.60
2022-08-05T09:14:56.854Z,27.70
2022-08-05T09:17:42.283Z,28.00
2022-08-05T09:20:08.536Z,28.10
2022-08-05T09:23:09.343Z,28.10
2022-08-05T09:26:01.958Z,28.30
2022-08-05T09:28:32.282Z,28.40
2022-08-05T09:32:38.796Z,28.30
2022-08-05T09:34:01.433Z,28.30
2022-08-05T09:36:54.989Z,28.30
2022-08-05T09:39:27.778Z,28.50
2022-08-05T09:42:08.786Z,28.70
2022-08-05T09:44:49.438Z,28.80
2022-08-05T09:47:20.610Z,28.80
2022-08-05T09:50:01.151Z,28.80
2022-08-05T09:52:34.289Z,28.70
2022-08-05T09:55:57.495Z,28.60
2022-08-05T09:58:00.008Z,28.60
2022-08-05T10:00:29.718Z,28.60
2022-08-05T10:02:58.409Z,28.40
2022-08-05T10:05:27.793Z,28.20
2022-08-05T10:08:35.141Z,28.30
2022-08-05T10:10:54.062Z,28.20
2022-08-05T10:13:45.571Z,28.20
2022-08-05T10:16:41.870Z,28.20
2022-08-05T10:19:23.481Z,28.30
2022-08-05T10:21:58.922Z,28.30
2022-08-05T10:24:27.207Z,28.40
2022-08-05T10:27:00.224Z,28.50
2022-08-05T10:30:07.014Z,28.50
2022-08-05T10:33:01.674Z,28.50
2022-08-05T10:35:03.415Z,28.70
2022-08-05T10:37:39.996Z,28.80
2022-08-05T10:40:33.188Z,28.90
2022-08-05T10:43:36.288Z,29.10
2022-08-05T10:46:07.361Z,29.10
2022-08-05T10:48:56.813Z,29.50
2022-08-05T10:51:29.128Z,29.40
2022-08-05T10:54:01.774Z,29.40
2022-08-05T10:56:49.287Z,29.70
2022-08-05T11:00:02.103Z,29.70
2022-08-05T11:02:37.460Z,30.10
2022-08-05T11:05:04.988Z,30.40
2022-08-05T11:07:33.217Z,30.50
2022-08-05T11:10:27.446Z,30.50
2022-08-05T11:12:55.925Z,30.40
2022-08-05T11:15:59.236Z,30.50
2022-08-05T11:18:35.085Z,30.70
2022-08-05T11:21:06.184Z,30.70
2022-08-05T11:24:04.527Z,30.60
2022-08-05T11:26:40.952Z,30.60
2022-08-05T11:29:40.923Z,30.80
2022-08-05T11:32:27.541Z,30.60
2022-08-05T11:34:55.231Z,30.70
2022-08-05T11:38:26.509Z,30.70
2022-08-05T11:41:01.311Z,30.90
2022-08-05T11:44:00.940Z,31.30
2022-08-05T11:46:35.680Z,31.30
2022-08-05T11:49:03.871Z,31.30
2022-08-05T11:51:44.811Z,31.30
2022-08-05T11:54:43.615Z,31.10
2022-08-05T11:57:24.859Z,31.00
2022-08-05T11:59:52.807Z,30.80
2022-08-05T12:02:31.633Z,30.40
2022-08-05T12:05:01.367Z,30.40
2022-08-05T12:08:03.274Z,30.40
2022-08-05T12:10:43.468Z,30.60
2022-08-05T12:13:28.344Z,30.60
2022-08-05T12:16:14.951Z,30.70
2022-08-05T12:18:42.792Z,30.80
2022-08-05T12:21:21.262Z,30.80
2022-08-05T12:24:06.888Z,30.90
2022-08-05T12:26:36.778Z,31.10
2022-08-05T12:29:09.521Z,31.20
2022-08-05T12:31:44.894Z,31.30
2022-08-05T12:34:20.378Z,31.40
2022-08-05T12:36:49.840Z,31.60
2022-08-05T12:39:17.678Z,31.60
2022-08-05T12:41:45.687Z,31.60
2022-08-05T12:44:28.602Z,31.10
2022-08-05T12:47:01.775Z,31.40
2022-08-05T12:50:04.369Z,31.40
2022-08-05T12:52:32.289Z,31.60
2022-08-05T12:55:15.655Z,31.50
2022-08-05T12:58:38.526Z,31.80
2022-08-05T13:02:02.674Z,32.10
2022-08-05T13:03:20.415Z,32.10
2022-08-05T13:05:50.066Z,32.10
2022-08-05T13:08:19.967Z,32.30
2022-08-05T13:10:50.712Z,32.40
2022-08-05T13:14:04.814Z,32.60
2022-08-05T13:16:13.028Z,32.60
2022-08-05T13:18:51.778Z,32.50
2022-08-05T13:21:18.509Z,32.10
2022-08-05T13:23:50.716Z,32.30
2022-08-05T13:26:20.932Z,32.20
2022-08-05T13:28:56.686Z,31.90
2022-08-05T13:31:33.835Z,32.00
2022-08-05T13:34:23.605Z,32.00
2022-08-05T13:36:53.604Z,31.90
2022-08-05T13:39:24.573Z,31.90
2022-08-05T13:42:08.076Z,31.80
2022-08-05T13:44:45.877Z,31.60
2022-08-05T13:47:35.074Z,31.40
2022-08-05T13:50:11.316Z,31.30
2022-08-05T13:52:41.748Z,31.20
2022-08-05T13:55:10.779Z,31.00
2022-08-05T13:57:51.136Z,30.70
2022-08-05T14:00:26.794Z,30.70
2022-08-05T14:02:55.777Z,30.50
2022-08-05T14:05:29.419Z,30.50
2022-08-05T14:08:11.122Z,30.50
2022-08-05T14:10:47.531Z,30.30
2022-08-05T14:13:15.486Z,30.20
2022-08-05T14:16:08.908Z,30.30
2022-08-05T14:18:29.019Z,30.30
2022-08-05T14:20:55.747Z,30.40
2022-08-05T14:23:25.782Z,30.40
2022-08-05T14:25:58.991Z,30.30
2022-08-05T14:28:28.079Z,30.20
2022-08-05T14:30:56.442Z,29.90
2022-08-05T14:33:23.900Z,29.90
2022-08-05T14:35:52.285Z,29.90
2022-08-05T14:38:31.639Z,30.00
2022-08-05T14:41:00.185Z,30.10
2022-08-05T14:44:01.493Z,30.10
2022-08-05T14:46:13.753Z,30.40
2022-08-05T14:48:40.758Z,30.10
2022-08-05T14:51:08.373Z,29.90
2022-08-05T14:53:44.518Z,29.80
2022-08-05T14:56:11.982Z,29.70
2022-08-05T14:58:47.875Z,29.80
2022-08-05T15:01:24.324Z,29.90
2022-08-05T15:04:09.956Z,30.10
2022-08-05T15:06:38.820Z,30.10
2022-08-05T15:09:07.285Z,29.90
2022-08-05T15:11:51.731Z,29.90
2022-08-05T15:14:35.753Z,29.80
2022-08-05T15:17:09.962Z,29.80
2022-08-05T15:19:55.661Z,29.70
2022-08-05T15:22:26.948Z,29.70
2022-08-05T15:24:55.316Z,29.70
2022-08-05T15:27:22.344Z,29.70
2022-08-05T15:29:52.986Z,29.70
2022-08-05T15:32:28.611Z,29.60
2022-08-05T15:34:56.809Z,29.60
2022-08-05T15:38:32.589Z,29.60
2022-08-05T15:41:01.277Z,29.60
2022-08-05T15:43:09.362Z,29.50
2022-08-05T15:45:45.584Z,29.70
2022-08-05T15:48:14.134Z,29.60
2022-08-05T15:50:43.913Z,29.70
2022-08-05T15:53:13.122Z,29.70
2022-08-05T15:56:03.071Z,29.60
2022-08-05T15:58:30.162Z,29.50
2022-08-05T16:01:16.125Z,29.40
2022-08-05T16:03:48.274Z,29.40
2022-08-05T16:06:15.316Z,29.60
2022-08-05T16:08:47.399Z,29.60
2022-08-05T16:11:14.234Z,29.60
2022-08-05T16:13:41.717Z,29.50
2022-08-05T16:16:10.707Z,29.50
2022-08-05T16:18:52.282Z,29.40
2022-08-05T16:21:20.566Z,29.40
2022-08-05T16:24:12.598Z,29.30
2022-08-05T16:26:54.422Z,29.20
2022-08-05T16:29:22.225Z,29.10
2022-08-05T16:31:56.620Z,29.00
2022-08-05T16:34:25.387Z,29.10
2022-08-05T16:36:53.334Z,29.10
2022-08-05T16:39:20.932Z,29.00
2022-08-05T16:42:27.859Z,28.90
2022-08-05T16:44:35.093Z,28.90
2022-08-05T16:47:04.481Z,28.80
2022-08-05T16:49:31.268Z,28.70
2022-08-05T16:51:57.932Z,28.70
2022-08-05T16:54:31.854Z,28.70
2022-08-05T16:56:59.823Z,28.60
2022-08-05T16:59:27.746Z,28.50
2022-08-05T17:01:57.282Z,28.40
2022-08-05T17:04:28.311Z,28.30
2022-08-05T17:06:59.992Z,28.30
2022-08-05T17:09:57.242Z,28.10
2022-08-05T17:12:22.366Z,28.00
2022-08-05T17:15:09.307Z,27.90
2022-08-05T17:17:42.173Z,27.90
2022-08-05T17:20:14.633Z,27.80
2022-08-05T17:22:41.706Z,27.70
2022-08-05T17:25:22.164Z,27.80
2022-08-05T17:27:55.825Z,27.60
2022-08-05T17:30:28.136Z,27.70
2022-08-05T17:32:55.383Z,27.70
2022-08-05T17:35:22.122Z,27.80
2022-08-05T17:37:49.192Z,27.50
2022-08-05T17:40:18.532Z,27.40
2022-08-05T17:42:52.000Z,27.40
2022-08-05T17:49:07.395Z,27.10
2022-08-05T17:51:40.598Z,27.10
2022-08-05T17:54:07.470Z,26.90
2022-08-05T17:56:34.820Z,26.70
2022-08-05T17:59:03.480Z,26.60
2022-08-05T18:01:30.993Z,26.60
2022-08-05T18:04:16.253Z,26.50
2022-08-05T18:06:48.199Z,26.30
2022-08-05T18:09:16.756Z,26.30
2022-08-05T18:11:43.436Z,26.20
2022-08-05T18:14:13.445Z,26.20
2022-08-05T18:16:43.709Z,26.20
2022-08-05T18:19:18.704Z,26.10
2022-08-05T18:22:08.523Z,26.20
2022-08-05T18:24:37.821Z,25.90
2022-08-05T18:27:18.157Z,25.70
2022-08-05T18:29:53.699Z,25.60
2022-08-05T18:32:28.250Z,25.60
2022-08-05T18:34:56.891Z,25.60
2022-08-05T18:37:34.756Z,25.50
2022-08-05T18:40:31.689Z,25.20
2022-08-05T18:42:56.443Z,25.30
2022-08-05T18:45:23.755Z,25.30
2022-08-05T18:47:56.599Z,25.20
2022-08-05T18:50:46.873Z,25.30
2022-08-05T18:53:19.240Z,25.10
2022-08-05T18:55:49.555Z,25.00
2022-08-05T18:58:16.564Z,25.10
2022-08-05T19:00:43.418Z,25.10
2022-08-05T19:03:14.931Z,25.10
2022-08-05T19:06:11.757Z,25.00
2022-08-05T19:08:30.476Z,25.00
2022-08-05T19:10:59.366Z,25.10
2022-08-05T19:13:26.140Z,25.00
2022-08-05T19:15:58.902Z,24.80
2022-08-05T19:18:27.969Z,24.70
2022-08-05T19:20:55.674Z,24.80
2022-08-05T19:24:07.747Z,24.80
2022-08-05T19:26:11.205Z,24.60
2022-08-05T19:28:43.401Z,24.40
2022-08-05T19:31:13.606Z,24.40
2022-08-05T19:33:48.642Z,24.20
2022-08-05T19:36:23.315Z,24.40
2022-08-05T19:38:50.026Z,24.40
2022-08-05T19:41:16.720Z,24.30
2022-08-05T19:44:05.966Z,24.30
2022-08-05T19:46:35.367Z,24.10
2022-08-05T19:49:07.063Z,24.00
2022-08-05T19:52:13.188Z,24.10
2022-08-05T19:54:29.543Z,24.20
2022-08-05T19:57:06.859Z,24.10
2022-08-05T19:59:59.369Z,23.90
2022-08-05T20:02:24.340Z,23.90
2022-08-05T20:04:53.137Z,23.90
2022-08-05T20:07:46.346Z,23.80
2022-08-05T20:10:13.246Z,23.90
2022-08-05T20:12:48.042Z,23.80
2022-08-05T20:15:23.399Z,23.60
2022-08-05T20:18:10.205Z,23.70
2022-08-05T20:20:56.178Z,23.50
2022-08-05T20:23:39.269Z,23.50
2022-08-05T20:26:16.613Z,23.40
2022-08-05T20:28:52.740Z,23.30
2022-08-05T20:31:21.578Z,23.50
2022-08-05T20:33:50.160Z,23.60
2022-08-05T20:36:18.060Z,23.50
2022-08-05T20:38:53.408Z,23.30
2022-08-05T20:41:23.977Z,23.30
2022-08-05T20:43:59.581Z,23.10
2022-08-05T20:46:30.024Z,23.00
2022-08-05T20:48:57.429Z,22.90
2022-08-05T20:51:24.085Z,22.80
2022-08-05T20:53:56.312Z,22.90
2022-08-05T20:56:29.748Z,22.70
2022-08-05T20:59:13.888Z,22.80
2022-08-05T21:01:42.822Z,22.90
2022-08-05T21:04:12.612Z,22.80
2022-08-05T21:06:45.287Z,22.90
2022-08-05T21:09:14.724Z,22.90
2022-08-05T21:12:09.345Z,22.90
2022-08-05T21:14:34.815Z,22.90
2022-08-05T21:17:05.882Z,23.00
2022-08-05T21:19:47.400Z,22.80
2022-08-05T21:22:17.785Z,22.60
2022-08-05T21:24:49.027Z,22.60
2022-08-05T21:27:20.528Z,22.60
2022-08-05T21:29:51.534Z,22.80
2022-08-05T21:32:26.822Z,22.60
2022-08-05T21:35:08.958Z,22.40
2022-08-05T21:37:42.500Z,22.30
2022-08-05T21:40:14.235Z,22.50
2022-08-05T21:42:45.179Z,22.40
2022-08-05T21:45:17.594Z,22.50
2022-08-05T21:47:56.213Z,22.40
2022-08-05T21:50:24.139Z,22.30
2022-08-05T21:52:50.859Z,22.40
2022-08-05T21:55:43.164Z,22.30
2022-08-05T21:58:06.193Z,22.20
2022-08-05T22:00:32.977Z,22.30
2022-08-05T22:03:00.403Z,22.10
2022-08-05T22:05:27.251Z,22.10
2022-08-05T22:07:59.286Z,22.10
2022-08-05T22:10:29.313Z,22.10
2022-08-05T22:13:08.779Z,22.10
2022-08-05T22:16:00.595Z,22.10
2022-08-05T22:18:28.753Z,22.10
2022-08-05T22:20:56.777Z,22.00
2022-08-05T22:24:02.509Z,21.90
2022-08-05T22:26:50.517Z,21.80
2022-08-05T22:29:17.643Z,21.90
2022-08-05T22:31:45.758Z,21.90
2022-08-05T22:34:28.226Z,21.80
2022-08-05T22:36:56.790Z,21.90
2022-08-05T22:39:29.757Z,21.80
2022-08-05T22:42:09.416Z,21.80
2022-08-05T22:44:40.358Z,21.90
2022-08-05T22:47:07.062Z,21.90
2022-08-05T22:50:19.483Z,21.90
2022-08-05T22:52:30.121Z,21.60
2022-08-05T22:54:58.896Z,21.60
2022-08-05T22:57:25.610Z,21.60
2022-08-05T22:59:54.310Z,21.50
2022-08-05T23:02:28.899Z,21.50
2022-08-05T23:04:58.298Z,21.60
2022-08-05T23:07:30.271Z,21.60
2022-08-05T23:10:02.170Z,21.60
2022-08-05T23:12:32.875Z,21.50
2022-08-05T23:15:09.158Z,21.20
2022-08-05T23:17:37.900Z,21.30
2022-08-05T23:20:23.494Z,21.30
2022-08-05T23:22:55.624Z,21.40
2022-08-05T23:25:50.923Z,21.30
2022-08-05T23:28:10.286Z,21.20
2022-08-05T23:30:40.215Z,21.10
2022-08-05T23:33:21.936Z,21.10
2022-08-05T23:35:50.203Z,21.10
2022-08-05T23:38:17.177Z,21.10
2022-08-05T23:40:50.087Z,21.20
2022-08-05T23:43:25.091Z,21.10
2022-08-05T23:46:20.064Z,21.10
2022-08-05T23:49:01.051Z,21.20
2022-08-05T23:51:54.036Z,21.20
2022-08-05T23:54:26.656Z,20.90
2022-08-05T23:57:03.722Z,20.90
